createdAt,value
2022-07-27T00:00:19.507Z,10.55
2022-07-27T00:03:22.638Z,10.59
2022-07-27T00:06:25.033Z,10.62
2022-07-27T00:09:26.808Z,10.65
2022-07-27T00:12:28.567Z,10.61
2022-07-27T00:15:30.685Z,10.61
2022-07-27T00:18:32.656Z,10.65
2022-07-27T00:21:34.355Z,10.67
2022-07-27T00:24:39.310Z,10.70
2022-07-27T00:27:41.093Z,10.74
2022-07-27T00:30:43.006Z,10.79
2022-07-27T00:33:44.887Z,10.78
2022-07-27T00:36:46.650Z,10.74
2022-07-27T00:39:49.749Z,10.72
2022-07-27T00:42:51.620Z,10.75
2022-07-27T00:45:53.465Z,10.77
2022-07-27T00:48:55.536Z,10.71
2022-07-27T00:51:57.322Z,10.63
2022-07-27T00:54:59.471Z,10.57
2022-07-27T00:58:01.567Z,10.56
2022-07-27T01:01:03.594Z,10.61
2022-07-27T01:04:05.888Z,10.67
2022-07-27T01:07:09.103Z,10.72
2022-07-27T01:10:10.835Z,10.79
2022-07-27T01:13:13.528Z,10.84
2022-07-27T01:16:15.694Z,10.80
2022-07-27T01:19:18.645Z,10.76
2022-07-27T01:22:20.390Z,10.72
2022-07-27T01:25:22.494Z,10.44
2022-07-27T01:28:24.474Z,10.08
2022-07-27T01:31:27.728Z,9.97
2022-07-27T01:34:29.539Z,9.90
2022-07-27T01:37:31.424Z,9.82
2022-07-27T01:40:34.099Z,9.75
2022-07-27T01:43:35.711Z,9.78
2022-07-27T01:46:37.563Z,9.78
2022-07-27T01:49:39.327Z,9.72
2022-07-27T01:52:41.018Z,9.65
2022-07-27T01:55:42.839Z,9.65
2022-07-27T01:58:44.527Z,9.66
2022-07-27T02:01:46.301Z,9.64
2022-07-27T02:04:48.137Z,9.60
2022-07-27T02:07:49.986Z,9.54
2022-07-27T02:11:10.152Z,9.49
2022-07-27T02:14:12.079Z,9.42
2022-07-27T02:17:13.806Z,9.35
2022-07-27T02:20:19.320Z,9.28
2022-07-27T02:23:21.028Z,9.20
2022-07-27T02:26:22.712Z,9.17
2022-07-27T02:29:24.386Z,9.14
2022-07-27T02:32:26.165Z,9.13
2022-07-27T02:35:27.903Z,9.16
2022-07-27T02:38:29.608Z,9.14
2022-07-27T02:41:31.318Z,9.06
2022-07-27T02:44:32.990Z,8.97
2022-07-27T02:47:36.724Z,8.93
2022-07-27T02:50:38.606Z,8.88
2022-07-27T02:53:40.485Z,8.87
2022-07-27T02:56:42.159Z,8.82
2022-07-27T02:59:43.827Z,8.76
2022-07-27T03:02:49.267Z,8.78
2022-07-27T03:05:51.006Z,8.73
2022-07-27T03:08:52.711Z,8.71
2022-07-27T03:11:54.417Z,8.69
2022-07-27T03:14:56.969Z,8.68
2022-07-27T03:17:58.664Z,8.68
2022-07-27T03:21:00.347Z,8.65
2022-07-27T03:24:02.016Z,8.63
2022-07-27T03:27:03.835Z,8.62
2022-07-27T03:30:06.627Z,8.62
2022-07-27T03:33:08.365Z,8.65
2022-07-27T03:36:10.142Z,8.69
2022-07-27T03:39:13.599Z,8.65
2022-07-27T03:42:15.807Z,8.62
2022-07-27T03:45:17.525Z,8.62
2022-07-27T03:48:19.178Z,8.62
2022-07-27T03:51:21.856Z,8.66
2022-07-27T03:54:23.390Z,8.66
2022-07-27T03:57:25.490Z,8.65
2022-07-27T04:00:27.279Z,8.60
2022-07-27T04:03:28.991Z,8.57
2022-07-27T04:06:30.707Z,8.57
2022-07-27T04:09:32.375Z,8.60
2022-07-27T04:12:36.871Z,8.66
2022-07-27T04:15:38.718Z,8.71
2022-07-27T04:18:40.429Z,8.77
2022-07-27T04:21:42.190Z,8.82
2022-07-27T04:24:43.859Z,8.88
2022-07-27T04:27:45.605Z,8.94
2022-07-27T04:30:47.352Z,8.98
2022-07-27T04:33:49.558Z,9.05
2022-07-27T04:36:51.415Z,9.05
2022-07-27T04:39:57.622Z,9.09
2022-07-27T04:43:00.737Z,9.09
2022-07-27T04:46:04.688Z,9.12
2022-07-27T04:49:06.590Z,9.21
2022-07-27T04:52:08.330Z,9.27
2022-07-27T04:55:10.346Z,9.32
2022-07-27T04:58:13.431Z,9.38
2022-07-27T05:01:15.170Z,9.48
2022-07-27T05:04:16.938Z,9.60
2022-07-27T05:07:18.670Z,9.75
2022-07-27T05:10:20.972Z,9.85
2022-07-27T05:13:22.813Z,10.02
2022-07-27T05:16:28.530Z,10.25
2022-07-27T05:19:40.527Z,10.48
2022-07-27T05:22:42.710Z,10.65
2022-07-27T05:25:44.485Z,10.82
2022-07-27T05:28:46.238Z,10.94
2022-07-27T05:31:48.102Z,11.09
2022-07-27T05:34:49.960Z,11.27
2022-07-27T05:37:51.744Z,11.37
2022-07-27T05:40:53.552Z,11.49
2022-07-27T05:43:55.448Z,11.59
2022-07-27T05:46:57.210Z,11.68
2022-07-27T05:49:58.929Z,11.82
2022-07-27T05:53:01.111Z,11.97
2022-07-27T05:56:02.820Z,12.09
2022-07-27T05:59:07.350Z,12.16
2022-07-27T06:02:09.295Z,12.17
2022-07-27T06:05:15.922Z,12.09
2022-07-27T06:08:19.683Z,11.94
2022-07-27T06:11:21.483Z,11.89
2022-07-27T06:14:23.172Z,11.90
2022-07-27T06:17:24.934Z,11.93
2022-07-27T06:20:27.545Z,11.92
2022-07-27T06:23:29.618Z,11.93
2022-07-27T06:26:31.316Z,11.98
2022-07-27T06:29:34.882Z,11.99
2022-07-27T06:32:36.846Z,11.87
2022-07-27T06:35:40.493Z,11.89
2022-07-27T06:38:42.922Z,11.97
2022-07-27T06:41:45.012Z,12.02
2022-07-27T06:44:48.122Z,12.05
2022-07-27T06:47:51.201Z,12.00
2022-07-27T06:50:53.656Z,12.09
2022-07-27T06:53:55.805Z,12.02
2022-07-27T06:56:57.520Z,12.03
2022-07-27T06:59:59.293Z,11.97
2022-07-27T07:03:03.631Z,11.93
2022-07-27T07:06:05.432Z,12.15
2022-07-27T07:09:07.152Z,12.36
2022-07-27T07:12:10.896Z,12.43
2022-07-27T07:15:13.371Z,12.37
2022-07-27T07:18:15.241Z,12.75
2022-07-27T07:21:17.297Z,13.17
2022-07-27T07:24:19.666Z,13.49
2022-07-27T07:27:23.505Z,13.56
2022-07-27T07:30:25.499Z,13.30
2022-07-27T07:33:27.883Z,13.48
2022-07-27T07:36:29.833Z,13.77
2022-07-27T07:39:31.829Z,13.70
2022-07-27T07:42:51.338Z,14.02
2022-07-27T07:45:53.047Z,14.15
2022-07-27T07:48:54.864Z,13.62
2022-07-27T07:51:56.816Z,13.51
2022-07-27T07:54:58.567Z,13.78
2022-07-27T07:58:01.459Z,13.66
2022-07-27T08:01:03.252Z,13.86
2022-07-27T08:04:05.157Z,14.04
2022-07-27T08:07:07.732Z,13.93
2022-07-27T08:10:10.661Z,14.02
2022-07-27T08:13:12.432Z,14.11
2022-07-27T08:16:14.498Z,14.37
2022-07-27T08:19:16.409Z,14.62
2022-07-27T08:22:18.087Z,14.75
2022-07-27T08:25:19.822Z,14.73
2022-07-27T08:28:21.571Z,14.70
2022-07-27T08:31:26.574Z,14.81
2022-07-27T08:34:45.345Z,14.96
2022-07-27T08:37:47.242Z,15.02
2022-07-27T08:40:50.467Z,15.17
2022-07-27T08:43:52.957Z,15.42
2022-07-27T08:46:56.096Z,15.35
2022-07-27T08:49:57.984Z,15.44
2022-07-27T08:53:05.563Z,15.77
2022-07-27T08:56:07.357Z,15.97
2022-07-27T08:59:09.710Z,16.16
2022-07-27T09:02:13.902Z,16.27
2022-07-27T09:05:16.369Z,16.46
2022-07-27T09:08:24.682Z,16.16
2022-07-27T09:11:26.618Z,16.22
2022-07-27T09:14:33.716Z,16.28
2022-07-27T09:17:48.570Z,16.40
2022-07-27T09:21:21.041Z,16.51
2022-07-27T09:24:45.602Z,16.49
2022-07-27T09:27:45.997Z,16.54
2022-07-27T09:30:47.767Z,16.58
2022-07-27T09:33:51.775Z,16.63
2022-07-27T09:36:57.224Z,16.66
2022-07-27T09:40:24.477Z,16.94
2022-07-27T09:44:27.735Z,17.15
2022-07-27T09:46:50.575Z,16.63
2022-07-27T09:49:53.292Z,17.15
2022-07-27T09:53:41.419Z,17.56
2022-07-27T09:56:34.765Z,17.77
2022-07-27T09:59:36.681Z,17.81
2022-07-27T10:02:39.358Z,17.57
2022-07-27T10:05:41.141Z,17.54
2022-07-27T10:08:46.356Z,17.77
2022-07-27T10:11:49.400Z,17.73
2022-07-27T10:14:51.106Z,18.00
2022-07-27T10:18:09.180Z,18.36
2022-07-27T10:21:11.771Z,18.58
2022-07-27T10:24:34.868Z,18.91
2022-07-27T10:27:36.555Z,18.71
2022-07-27T10:30:40.144Z,18.94
2022-07-27T10:33:46.366Z,18.91
2022-07-27T10:36:51.024Z,19.00
2022-07-27T10:40:14.203Z,18.93
2022-07-27T10:43:20.753Z,18.98
2022-07-27T10:46:22.640Z,19.16
2022-07-27T10:49:40.351Z,19.09
2022-07-27T10:52:53.511Z,19.33
2022-07-27T10:55:55.256Z,19.49
2022-07-27T10:58:56.963Z,19.48
2022-07-27T11:01:58.893Z,19.73
2022-07-27T11:05:00.671Z,19.71
2022-07-27T11:08:35.353Z,19.93
2022-07-27T11:11:25.331Z,19.32
2022-07-27T11:14:31.315Z,18.97
2022-07-27T11:21:26.080Z,18.67
2022-07-27T11:24:29.003Z,18.35
2022-07-27T11:27:31.019Z,18.42
2022-07-27T11:30:32.618Z,18.22
2022-07-27T11:33:35.017Z,18.14
2022-07-27T11:36:46.731Z,18.37
2022-07-27T11:40:20.237Z,18.34
2022-07-27T11:43:10.419Z,18.07
2022-07-27T11:46:26.188Z,18.21
2022-07-27T11:49:30.259Z,18.21
2022-07-27T11:52:32.164Z,18.07
2022-07-27T11:55:48.149Z,18.22
2022-07-27T11:59:04.747Z,18.38
2022-07-27T12:02:08.470Z,18.61
2022-07-27T12:05:11.285Z,18.85
2022-07-27T12:08:13.130Z,18.95
2022-07-27T12:11:16.582Z,18.95
2022-07-27T12:14:18.363Z,18.95
2022-07-27T12:17:31.912Z,19.43
2022-07-27T12:20:35.251Z,20.23
2022-07-27T12:23:52.674Z,20.74
2022-07-27T12:27:06.682Z,21.09
2022-07-27T12:30:11.324Z,21.48
2022-07-27T12:33:31.068Z,21.72
2022-07-27T12:36:33.427Z,21.77
2022-07-27T12:39:35.179Z,22.08
2022-07-27T12:42:37.781Z,21.76
2022-07-27T12:45:39.747Z,20.92
2022-07-27T12:48:42.001Z,20.11
2022-07-27T12:51:43.879Z,19.69
2022-07-27T12:54:45.503Z,19.34
2022-07-27T12:57:56.529Z,19.10
2022-07-27T13:00:59.029Z,19.23
2022-07-27T13:04:01.119Z,19.43
2022-07-27T13:07:02.741Z,19.64
2022-07-27T13:10:08.096Z,20.14
2022-07-27T13:13:09.956Z,20.28
2022-07-27T13:16:11.613Z,20.15
2022-07-27T13:19:16.594Z,19.64
2022-07-27T13:22:18.539Z,19.49
2022-07-27T13:25:20.632Z,19.35
2022-07-27T13:28:22.468Z,19.32
2022-07-27T13:31:24.310Z,19.33
2022-07-27T13:34:25.943Z,19.25
2022-07-27T13:37:28.056Z,19.20
2022-07-27T13:40:29.755Z,19.09
2022-07-27T13:43:31.492Z,18.99
2022-07-27T13:46:33.750Z,18.82
2022-07-27T13:49:35.486Z,18.98
2022-07-27T13:52:37.240Z,18.83
2022-07-27T13:55:39.037Z,18.70
2022-07-27T13:58:41.177Z,18.74
2022-07-27T14:01:42.967Z,18.85
2022-07-27T14:04:44.830Z,19.07
2022-07-27T14:07:46.699Z,19.36
2022-07-27T14:10:48.751Z,19.29
2022-07-27T14:13:53.080Z,19.45
2022-07-27T14:16:54.859Z,19.61
2022-07-27T14:19:56.617Z,19.89
2022-07-27T14:22:58.534Z,20.04
2022-07-27T14:26:01.106Z,20.00
2022-07-27T14:29:02.830Z,19.85
2022-07-27T14:32:05.657Z,19.91
2022-07-27T14:35:08.277Z,19.87
2022-07-27T14:38:11.018Z,19.74
2022-07-27T14:41:12.719Z,19.75
2022-07-27T14:44:14.459Z,19.55
2022-07-27T14:47:20.517Z,19.49
2022-07-27T14:50:22.215Z,19.50
2022-07-27T14:53:23.956Z,19.66
2022-07-27T14:56:25.647Z,19.94
2022-07-27T14:59:27.535Z,20.15
2022-07-27T15:02:29.269Z,20.26
2022-07-27T15:05:31.605Z,20.15
2022-07-27T15:08:34.578Z,20.19
2022-07-27T15:11:37.748Z,20.03
2022-07-27T15:14:39.778Z,20.14
2022-07-27T15:17:41.704Z,20.07
2022-07-27T15:20:43.306Z,19.92
2022-07-27T15:23:45.090Z,19.90
2022-07-27T15:26:46.825Z,19.73
2022-07-27T15:29:48.934Z,19.49
2022-07-27T15:32:50.596Z,19.38
2022-07-27T15:35:52.363Z,19.07
2022-07-27T15:38:54.171Z,19.19
2022-07-27T15:41:55.843Z,19.31
2022-07-27T15:44:57.537Z,19.23
2022-07-27T15:48:01.306Z,19.32
2022-07-27T15:51:03.400Z,19.40
2022-07-27T15:54:05.097Z,19.57
2022-07-27T15:57:09.650Z,19.63
2022-07-27T16:00:12.515Z,19.55
2022-07-27T16:03:14.885Z,19.43
2022-07-27T16:06:19.259Z,19.38
2022-07-27T16:09:22.052Z,19.41
2022-07-27T16:12:23.777Z,19.60
2022-07-27T16:15:45.527Z,19.72
2022-07-27T16:18:48.162Z,19.74
2022-07-27T16:21:54.329Z,19.83
2022-07-27T16:24:57.753Z,19.85
2022-07-27T16:27:59.483Z,19.91
2022-07-27T16:31:01.791Z,19.97
2022-07-27T16:34:03.675Z,20.11
2022-07-27T16:37:05.495Z,20.05
2022-07-27T16:40:07.668Z,20.16
2022-07-27T16:43:09.399Z,20.08
2022-07-27T16:46:11.165Z,19.79
2022-07-27T16:49:14.044Z,19.68
2022-07-27T16:52:16.137Z,19.61
2022-07-27T16:55:17.931Z,19.35
2022-07-27T16:58:19.691Z,19.08
2022-07-27T17:01:22.061Z,18.84
2022-07-27T17:04:28.382Z,18.68
2022-07-27T17:07:30.171Z,18.47
2022-07-27T17:10:32.484Z,18.29
2022-07-27T17:13:36.630Z,18.18
2022-07-27T17:16:38.340Z,18.04
2022-07-27T17:19:40.249Z,17.86
2022-07-27T17:22:42.394Z,17.75
2022-07-27T17:25:44.383Z,17.63
2022-07-27T17:28:46.003Z,17.57
2022-07-27T17:31:47.762Z,17.49
2022-07-27T17:34:49.553Z,17.41
2022-07-27T17:38:06.309Z,17.25
2022-07-27T17:41:08.750Z,17.16
2022-07-27T17:44:10.594Z,17.10
2022-07-27T17:47:12.301Z,17.06
2022-07-27T17:50:14.056Z,17.09
2022-07-27T17:53:15.775Z,16.88
2022-07-27T17:56:17.474Z,16.55
2022-07-27T18:02:40.905Z,16.22
2022-07-27T18:05:44.081Z,16.22
2022-07-27T18:08:46.651Z,16.24
2022-07-27T18:11:48.363Z,16.26
2022-07-27T18:15:08.736Z,16.28
2022-07-27T18:18:10.722Z,16.24
2022-07-27T18:21:13.350Z,16.24
2022-07-27T18:24:15.566Z,16.26
2022-07-27T18:27:17.117Z,16.30
2022-07-27T18:30:19.395Z,16.29
2022-07-27T18:33:22.141Z,16.27
2022-07-27T18:36:23.937Z,16.21
2022-07-27T18:39:33.621Z,16.18
2022-07-27T18:42:36.877Z,16.07
2022-07-27T18:45:39.326Z,16.02
2022-07-27T18:48:41.092Z,15.99
2022-07-27T18:51:42.832Z,15.88
2022-07-27T18:54:44.611Z,15.82
2022-07-27T18:57:46.355Z,15.77
2022-07-27T19:00:48.874Z,15.71
2022-07-27T19:03:51.799Z,15.64
2022-07-27T19:06:54.135Z,15.61
2022-07-27T19:09:55.976Z,15.57
2022-07-27T19:12:57.664Z,15.50
2022-07-27T19:16:00.886Z,15.47
2022-07-27T19:19:03.151Z,15.40
2022-07-27T19:22:04.789Z,15.35
2022-07-27T19:25:07.934Z,15.28
2022-07-27T19:28:09.702Z,15.21
2022-07-27T19:31:23.460Z,15.14
2022-07-27T19:34:25.529Z,15.03
2022-07-27T19:37:29.787Z,14.95
2022-07-27T19:40:46.937Z,14.93
2022-07-27T19:43:49.010Z,14.91
2022-07-27T19:46:50.723Z,14.91
2022-07-27T19:49:52.764Z,14.84
2022-07-27T19:52:54.524Z,14.80
2022-07-27T19:55:56.435Z,14.66
2022-07-27T19:58:58.181Z,14.52
2022-07-27T20:02:00.065Z,14.37
2022-07-27T20:05:02.013Z,14.26
2022-07-27T20:08:04.284Z,14.27
2022-07-27T20:11:06.551Z,14.26
2022-07-27T20:14:08.263Z,14.25
2022-07-27T20:17:10.020Z,14.27
2022-07-27T20:20:12.280Z,14.28
2022-07-27T20:23:14.037Z,14.35
2022-07-27T20:26:15.769Z,14.26
2022-07-27T20:29:17.499Z,14.20
2022-07-27T20:32:19.241Z,14.18
2022-07-27T20:35:21.259Z,14.19
2022-07-27T20:38:23.011Z,14.20
2022-07-27T20:41:24.809Z,14.11
2022-07-27T20:44:27.662Z,13.89
2022-07-27T20:47:34.375Z,13.75
2022-07-27T20:50:36.533Z,13.72
2022-07-27T20:53:39.476Z,13.63
2022-07-27T20:56:41.187Z,13.59
2022-07-27T20:59:42.887Z,13.65
2022-07-27T21:02:44.686Z,13.73
2022-07-27T21:05:46.482Z,13.76
2022-07-27T21:08:48.810Z,13.77
2022-07-27T21:11:50.517Z,13.81
2022-07-27T21:14:52.300Z,13.85
2022-07-27T21:17:54.016Z,13.93
2022-07-27T21:20:55.785Z,13.99
2022-07-27T21:24:17.307Z,13.97
2022-07-27T21:27:21.155Z,13.92
2022-07-27T21:30:23.195Z,13.96
2022-07-27T21:33:24.932Z,13.98
2022-07-27T21:36:26.794Z,14.06
2022-07-27T21:39:29.582Z,14.09
2022-07-27T21:42:33.111Z,14.11
2022-07-27T21:45:34.919Z,14.06
2022-07-27T21:48:36.738Z,14.12
2022-07-27T21:51:38.659Z,14.07
2022-07-27T21:54:40.520Z,13.95
2022-07-27T21:57:42.234Z,13.95
2022-07-27T22:00:44.026Z,13.99
2022-07-27T22:03:46.028Z,14.05
2022-07-27T22:06:47.830Z,13.95
2022-07-27T22:09:49.486Z,13.80
2022-07-27T22:12:51.258Z,13.61
2022-07-27T22:15:53.637Z,13.56
2022-07-27T22:18:56.786Z,13.59
2022-07-27T22:21:58.476Z,13.61
2022-07-27T22:25:00.356Z,13.57
2022-07-27T22:28:02.183Z,13.50
2022-07-27T22:31:21.621Z,13.50
2022-07-27T22:34:24.645Z,13.53
2022-07-27T22:37:26.612Z,13.53
2022-07-27T22:40:28.319Z,13.49
2022-07-27T22:43:30.336Z,13.32
2022-07-27T22:46:32.502Z,13.21
2022-07-27T22:49:37.589Z,13.18
2022-07-27T22:52:40.005Z,13.23
2022-07-27T22:55:41.765Z,13.29
2022-07-27T22:58:43.462Z,13.36
2022-07-27T23:01:47.431Z,13.41
2022-07-27T23:04:50.123Z,13.46
2022-07-27T23:07:52.166Z,13.50
2022-07-27T23:10:53.886Z,13.46
2022-07-27T23:13:55.640Z,13.43
2022-07-27T23:16:57.979Z,13.38
2022-07-27T23:19:59.703Z,13.33
2022-07-27T23:23:01.493Z,13.35
2022-07-27T23:26:04.503Z,13.34
2022-07-27T23:29:08.250Z,13.32
2022-07-27T23:32:11.045Z,13.29
2022-07-27T23:35:12.889Z,13.28
2022-07-27T23:38:14.596Z,13.30
2022-07-27T23:41:17.086Z,13.33
2022-07-27T23:44:19.046Z,13.40
2022-07-27T23:47:20.903Z,13.45
2022-07-27T23:50:22.715Z,13.58
2022-07-27T23:53:24.516Z,13.66
2022-07-27T23:56:26.300Z,13.69
2022-07-27T23:59:28.017Z,13.73
